createdAt,value
2019-03-20T00:01:28.428Z,5
2019-03-20T00:11:26.935Z,6
2019-03-20T00:21:27.734Z,5
2019-03-20T00:31:29.237Z,5
2019-03-20T00:41:29.011Z,5
2019-03-20T00:51:28.580Z,5
2019-03-20T01:01:28.125Z,5
2019-03-20T01:11:28.142Z,5
2019-03-20T01:21:27.773Z,5
2019-03-20T01:31:28.273Z,5
2019-03-20T01:41:37.334Z,5
2019-03-20T01:51:27.680Z,5
2019-03-20T02:01:28.661Z,5
2019-03-20T02:11:29.251Z,5
2019-03-20T02:21:27.367Z,5
2019-03-20T02:31:27.236Z,5
2019-03-20T02:41:28.452Z,5
2019-03-20T02:51:27.226Z,4
2019-03-20T03:01:28.790Z,5
2019-03-20T03:11:27.305Z,4
2019-03-20T03:21:27.131Z,4
2019-03-20T03:31:28.326Z,4
2019-03-20T03:41:26.952Z,4
2019-03-20T03:51:27.081Z,4
2019-03-20T04:01:28.907Z,4
2019-03-20T04:11:28.694Z,4
2019-03-20T04:21:27.895Z,4
2019-03-20T04:31:27.320Z,4
2019-03-20T04:41:27.821Z,4
2019-03-20T04:51:27.513Z,4
2019-03-20T05:01:28.399Z,4
2019-03-20T05:11:29.166Z,4
2019-03-20T05:21:27.355Z,4
2019-03-20T05:31:26.963Z,4
2019-03-20T05:41:28.977Z,4
2019-03-20T05:51:27.495Z,4
2019-03-20T06:01:27.040Z,4
2019-03-20T06:11:27.670Z,4
2019-03-20T06:21:29.051Z,4
2019-03-20T06:31:27.620Z,4
2019-03-20T06:41:28.091Z,5
2019-03-20T06:51:27.776Z,4
2019-03-20T07:01:27.163Z,4
2019-03-20T07:11:27.732Z,5
2019-03-20T07:21:27.589Z,5
2019-03-20T07:31:38.436Z,5
2019-03-20T07:41:27.604Z,6
2019-03-20T07:51:29.060Z,6
2019-03-20T08:01:28.133Z,6
2019-03-20T08:11:28.792Z,7
2019-03-20T08:21:27.804Z,7
2019-03-20T08:31:28.380Z,7
2019-03-20T08:41:27.567Z,7
2019-03-20T08:51:27.554Z,8
2019-03-20T09:01:30.240Z,7
2019-03-20T09:11:28.240Z,8
2019-03-20T09:21:27.205Z,8
2019-03-20T09:31:28.305Z,8
2019-03-20T09:41:26.788Z,9
2019-03-20T09:51:28.156Z,9
2019-03-20T10:01:28.049Z,9
2019-03-20T10:11:27.734Z,9
2019-03-20T10:21:28.094Z,10
2019-03-20T10:31:28.120Z,10
2019-03-20T10:41:28.225Z,10
2019-03-20T10:51:27.800Z,10
2019-03-20T11:01:27.745Z,11
2019-03-20T11:11:29.667Z,11
2019-03-20T11:21:27.539Z,11
2019-03-20T11:31:27.423Z,11
2019-03-20T11:41:27.119Z,11
2019-03-20T11:51:27.447Z,10
2019-03-20T12:01:27.096Z,10
2019-03-20T12:11:28.249Z,11
2019-03-20T12:21:27.509Z,11
2019-03-20T12:31:27.460Z,10
2019-03-20T12:41:27.465Z,11
2019-03-20T12:51:27.130Z,11
2019-03-20T13:01:27.814Z,11
2019-03-20T13:11:27.534Z,11
2019-03-20T13:21:32.922Z,11
2019-03-20T13:31:27.546Z,11
2019-03-20T13:41:27.490Z,11
2019-03-20T13:51:27.699Z,11
2019-03-20T14:01:27.931Z,11
2019-03-20T14:11:27.995Z,11
2019-03-20T14:21:27.945Z,11
2019-03-20T14:31:27.754Z,11
2019-03-20T14:41:27.993Z,11
2019-03-20T14:51:27.778Z,11
2019-03-20T15:01:28.549Z,11
2019-03-20T15:11:27.673Z,11
2019-03-20T15:21:27.411Z,11
2019-03-20T15:31:27.009Z,11
2019-03-20T15:41:29.390Z,12
2019-03-20T15:51:28.154Z,12
2019-03-20T16:01:28.191Z,13
2019-03-20T16:11:28.434Z,12
2019-03-20T16:21:27.249Z,12
2019-03-20T16:31:29.048Z,11
2019-03-20T16:41:27.707Z,11
2019-03-20T16:51:27.492Z,11
2019-03-20T17:01:27.103Z,11
2019-03-20T17:11:39.446Z,10
2019-03-20T17:21:28.535Z,10
2019-03-20T17:31:28.199Z,10
2019-03-20T17:41:37.629Z,10
2019-03-20T17:51:27.774Z,10
2019-03-20T18:01:27.766Z,9
2019-03-20T18:11:27.825Z,9
2019-03-20T18:21:27.773Z,9
2019-03-20T18:31:27.548Z,9
2019-03-20T18:41:27.343Z,10
2019-03-20T18:51:27.789Z,10
2019-03-20T19:01:27.569Z,10
2019-03-20T19:11:27.277Z,10
2019-03-20T19:21:27.564Z,10
2019-03-20T19:31:27.309Z,10
2019-03-20T19:41:27.350Z,10
2019-03-20T19:51:27.723Z,10
2019-03-20T20:01:28.331Z,9
2019-03-20T20:11:27.405Z,9
2019-03-20T20:21:28.658Z,9
2019-03-20T20:31:27.313Z,9
2019-03-20T20:41:26.922Z,9
2019-03-20T20:51:28.053Z,9
2019-03-20T21:01:31.380Z,8
2019-03-20T21:11:26.989Z,8
2019-03-20T21:21:28.154Z,8
2019-03-20T21:31:30.192Z,8
2019-03-20T21:41:27.861Z,7
2019-03-20T21:51:27.497Z,7
2019-03-20T22:01:27.158Z,7
2019-03-20T22:11:28.671Z,7
2019-03-20T22:21:31.422Z,7
2019-03-20T22:31:27.016Z,7
2019-03-20T22:41:27.659Z,7
2019-03-20T22:51:27.248Z,7
2019-03-20T23:01:27.982Z,7
2019-03-20T23:11:29.204Z,7
2019-03-20T23:21:27.781Z,6
2019-03-20T23:31:28.454Z,6
2019-03-20T23:41:27.205Z,6
2019-03-20T23:51:28.905Z,6
